createdAt,value
2018-05-31T00:01:03.459Z,9.90
2018-05-31T00:03:31.594Z,9.47
2018-05-31T00:06:00.077Z,13.07
2018-05-31T00:08:28.220Z,11.27
2018-05-31T00:10:56.363Z,8.57
2018-05-31T00:13:25.560Z,9.43
2018-05-31T00:15:54.782Z,11.57
2018-05-31T00:18:22.929Z,10.47
2018-05-31T00:20:51.087Z,10.93
2018-05-31T00:23:19.975Z,10.07
2018-05-31T00:25:48.880Z,9.60
2018-05-31T00:28:17.014Z,10.77
2018-05-31T00:30:45.156Z,12.07
2018-05-31T00:33:13.289Z,11.97
2018-05-31T00:35:41.463Z,12.13
2018-05-31T00:38:09.613Z,11.53
2018-05-31T00:40:37.757Z,12.30
2018-05-31T00:43:05.954Z,14.63
2018-05-31T00:45:34.191Z,16.33
2018-05-31T00:48:02.481Z,14.57
2018-05-31T00:50:30.713Z,14.77
2018-05-31T00:52:59.607Z,14.00
2018-05-31T00:55:39.601Z,19.13
2018-05-31T00:58:07.757Z,15.73
2018-05-31T01:00:36.795Z,17.10
2018-05-31T01:03:04.930Z,17.80
2018-05-31T01:05:33.093Z,17.77
2018-05-31T01:08:01.245Z,17.00
2018-05-31T01:10:29.548Z,18.00
2018-05-31T01:12:57.679Z,18.07
2018-05-31T01:15:26.661Z,19.10
2018-05-31T01:17:54.821Z,20.07
2018-05-31T01:20:23.012Z,18.57
2018-05-31T01:22:51.844Z,19.97
2018-05-31T01:25:19.953Z,19.63
2018-05-31T01:27:48.134Z,19.13
2018-05-31T01:30:16.712Z,20.30
2018-05-31T01:32:45.768Z,20.37
2018-05-31T01:35:13.990Z,19.43
2018-05-31T01:37:42.172Z,18.47
2018-05-31T01:40:10.346Z,19.63
2018-05-31T01:42:38.608Z,19.57
2018-05-31T01:45:07.944Z,18.07
2018-05-31T01:47:36.896Z,21.87
2018-05-31T01:50:05.039Z,20.07
2018-05-31T01:52:33.193Z,19.57
2018-05-31T01:55:02.822Z,23.77
2018-05-31T01:57:30.954Z,22.20
2018-05-31T01:59:59.913Z,20.47
2018-05-31T02:02:28.166Z,19.17
2018-05-31T02:04:56.288Z,19.83
2018-05-31T02:07:24.434Z,24.60
2018-05-31T02:09:53.271Z,27.80
2018-05-31T02:12:21.509Z,26.07
2018-05-31T02:14:49.641Z,23.00
2018-05-31T02:17:17.796Z,23.97
2018-05-31T02:19:46.713Z,26.13
2018-05-31T02:22:14.840Z,25.23
2018-05-31T02:24:43.017Z,25.60
2018-05-31T02:27:13.369Z,24.43
2018-05-31T02:29:41.512Z,25.00
2018-05-31T02:32:09.667Z,27.37
2018-05-31T02:34:37.806Z,30.50
2018-05-31T02:37:05.949Z,26.67
2018-05-31T02:39:35.565Z,28.23
2018-05-31T02:42:05.836Z,33.23
2018-05-31T02:44:33.972Z,31.13
2018-05-31T02:47:02.147Z,38.47
2018-05-31T02:49:30.302Z,35.33
2018-05-31T02:51:58.439Z,37.10
2018-05-31T02:54:26.591Z,41.50
2018-05-31T02:56:54.811Z,37.83
2018-05-31T02:59:23.015Z,40.50
2018-05-31T03:01:51.990Z,43.50
2018-05-31T03:04:20.153Z,39.03
2018-05-31T03:06:49.056Z,37.27
2018-05-31T03:09:17.184Z,29.17
2018-05-31T03:11:45.901Z,25.80
2018-05-31T03:14:14.810Z,21.57
2018-05-31T03:16:42.955Z,25.30
2018-05-31T03:19:11.076Z,17.57
2018-05-31T03:21:39.280Z,21.40
2018-05-31T03:24:07.509Z,21.63
2018-05-31T03:26:35.700Z,20.87
2018-05-31T03:29:03.959Z,20.60
2018-05-31T03:31:32.159Z,17.97
2018-05-31T03:34:00.290Z,14.60
2018-05-31T03:36:31.224Z,14.40
2018-05-31T03:39:00.153Z,14.03
2018-05-31T03:41:28.320Z,14.57
2018-05-31T03:43:56.455Z,13.30
2018-05-31T03:46:24.612Z,13.60
2018-05-31T03:48:52.927Z,14.57
2018-05-31T03:51:21.149Z,17.03
2018-05-31T03:53:49.299Z,17.83
2018-05-31T03:56:17.824Z,11.93
2018-05-31T03:58:45.991Z,13.97
2018-05-31T04:01:14.160Z,13.87
2018-05-31T04:03:42.311Z,14.37
2018-05-31T04:06:12.785Z,13.50
2018-05-31T04:08:41.393Z,14.67
2018-05-31T04:11:09.563Z,9.43
2018-05-31T04:13:38.450Z,8.67
2018-05-31T04:16:07.454Z,9.67
2018-05-31T04:18:36.471Z,9.23
2018-05-31T04:21:04.592Z,7.73
2018-05-31T04:23:33.709Z,9.10
2018-05-31T04:26:01.959Z,7.87
2018-05-31T04:28:30.102Z,8.40
2018-05-31T04:30:58.225Z,9.07
2018-05-31T04:33:27.218Z,9.67
2018-05-31T04:35:57.546Z,9.40
2018-05-31T04:38:26.469Z,12.60
2018-05-31T04:40:54.623Z,10.90
2018-05-31T04:43:25.055Z,10.67
2018-05-31T04:45:53.351Z,9.13
2018-05-31T04:48:21.552Z,9.20
2018-05-31T04:50:49.736Z,9.10
2018-05-31T04:53:17.962Z,10.10
2018-05-31T04:55:46.117Z,9.70
2018-05-31T04:58:14.263Z,10.43
2018-05-31T05:00:43.108Z,11.63
2018-05-31T05:03:11.248Z,10.80
2018-05-31T05:05:39.419Z,13.00
2018-05-31T05:08:08.321Z,12.40
2018-05-31T05:10:38.357Z,11.70
2018-05-31T05:13:06.514Z,11.83
2018-05-31T05:15:37.033Z,10.73
2018-05-31T05:18:06.655Z,11.47
2018-05-31T05:20:34.797Z,11.10
2018-05-31T05:23:02.952Z,11.40
2018-05-31T05:25:31.127Z,9.97
2018-05-31T05:28:00.563Z,10.93
2018-05-31T05:30:29.524Z,12.00
2018-05-31T05:32:58.322Z,11.30
2018-05-31T05:35:26.475Z,11.10
2018-05-31T05:37:54.617Z,11.40
2018-05-31T05:40:22.796Z,11.20
2018-05-31T05:42:50.957Z,10.50
2018-05-31T05:45:19.084Z,11.50
2018-05-31T05:47:47.540Z,10.57
2018-05-31T05:50:16.211Z,9.87
2018-05-31T05:52:44.374Z,9.80
2018-05-31T05:55:13.221Z,9.20
2018-05-31T05:57:41.373Z,10.23
2018-05-31T06:00:10.741Z,51.90
2018-05-31T06:02:38.872Z,11.00
2018-05-31T06:05:07.043Z,10.03
2018-05-31T06:07:36.149Z,11.40
2018-05-31T06:10:05.649Z,9.00
2018-05-31T06:12:34.462Z,9.23
2018-05-31T06:15:03.331Z,10.07
2018-05-31T06:17:31.540Z,9.73
2018-05-31T06:19:59.675Z,10.47
2018-05-31T06:22:27.819Z,7.93
2018-05-31T06:24:56.085Z,7.50
2018-05-31T06:27:24.214Z,7.93
2018-05-31T06:29:52.493Z,8.97
2018-05-31T06:32:21.622Z,8.77
2018-05-31T06:34:50.489Z,6.43
2018-05-31T06:37:19.429Z,8.47
2018-05-31T06:39:48.340Z,9.13
2018-05-31T06:42:16.527Z,5.40
2018-05-31T06:44:44.735Z,8.27
2018-05-31T06:47:12.856Z,8.03
2018-05-31T06:49:41.275Z,10.20
2018-05-31T06:52:10.688Z,9.90
2018-05-31T06:54:38.803Z,7.30
2018-05-31T06:57:07.685Z,6.87
2018-05-31T06:59:35.942Z,6.47
2018-05-31T07:02:04.496Z,8.60
2018-05-31T07:04:33.684Z,7.30
2018-05-31T07:07:01.844Z,6.33
2018-05-31T07:09:29.970Z,8.50
2018-05-31T07:11:58.791Z,7.57
2018-05-31T07:14:26.922Z,6.97
2018-05-31T07:16:55.191Z,7.03
2018-05-31T07:19:25.744Z,7.50
2018-05-31T07:21:54.064Z,7.70
2018-05-31T07:24:22.963Z,7.80
2018-05-31T07:26:52.052Z,8.98
2018-05-31T07:29:20.194Z,8.20
2018-05-31T07:31:48.892Z,10.40
2018-05-31T07:34:17.004Z,8.70
2018-05-31T07:36:46.082Z,9.27
2018-05-31T07:39:14.205Z,11.23
2018-05-31T07:41:42.384Z,10.07
2018-05-31T07:44:10.540Z,6.83
2018-05-31T07:46:38.715Z,8.87
2018-05-31T07:49:07.320Z,9.40
2018-05-31T07:51:35.420Z,6.17
2018-05-31T07:54:03.534Z,7.27
2018-05-31T07:56:31.765Z,8.00
2018-05-31T07:59:00.981Z,9.77
2018-05-31T08:01:29.082Z,10.40
2018-05-31T08:03:57.204Z,6.83
2018-05-31T08:06:25.382Z,7.53
2018-05-31T08:08:53.508Z,6.20
2018-05-31T08:11:21.663Z,5.70
2018-05-31T08:13:50.538Z,7.83
2018-05-31T08:16:18.935Z,7.37
2018-05-31T08:18:47.932Z,7.57
2018-05-31T08:21:16.056Z,6.77
2018-05-31T08:23:44.873Z,5.93
2018-05-31T08:26:13.864Z,6.47
2018-05-31T08:28:41.984Z,5.40
2018-05-31T08:31:10.177Z,5.53
2018-05-31T08:33:38.758Z,7.13
2018-05-31T08:36:08.624Z,7.43
2018-05-31T08:38:37.499Z,7.23
2018-05-31T08:41:05.622Z,5.03
2018-05-31T08:43:33.832Z,6.43
2018-05-31T08:46:02.083Z,4.87
2018-05-31T08:48:31.106Z,5.80
2018-05-31T08:50:59.277Z,6.93
2018-05-31T08:53:27.480Z,7.23
2018-05-31T08:55:56.378Z,6.57
2018-05-31T08:58:25.252Z,8.70
2018-05-31T09:00:54.251Z,6.03
2018-05-31T09:03:23.172Z,5.33
2018-05-31T09:05:51.274Z,5.83
2018-05-31T09:08:19.397Z,9.60
2018-05-31T09:10:48.271Z,6.33
2018-05-31T09:13:17.371Z,4.63
2018-05-31T09:15:46.784Z,6.07
2018-05-31T09:18:17.393Z,6.13
2018-05-31T09:20:45.601Z,7.37
2018-05-31T09:23:13.764Z,6.43
2018-05-31T09:25:42.636Z,8.73
2018-05-31T09:28:13.003Z,6.33
2018-05-31T09:30:41.113Z,8.00
2018-05-31T09:33:09.241Z,7.90
2018-05-31T09:35:37.808Z,7.17
2018-05-31T09:38:06.703Z,4.57
2018-05-31T09:40:35.584Z,6.87
2018-05-31T09:43:04.986Z,6.57
2018-05-31T09:45:33.194Z,5.83
2018-05-31T09:48:01.379Z,7.40
2018-05-31T09:50:29.491Z,5.63
2018-05-31T09:52:57.610Z,5.87
2018-05-31T09:55:25.724Z,4.33
2018-05-31T09:57:53.875Z,4.60
2018-05-31T10:00:21.977Z,3.63
2018-05-31T10:02:51.725Z,7.87
2018-05-31T10:05:19.963Z,4.60
2018-05-31T10:07:48.125Z,5.23
2018-05-31T10:10:16.243Z,4.97
2018-05-31T10:12:44.389Z,6.90
2018-05-31T10:15:12.512Z,5.43
2018-05-31T10:17:41.096Z,4.07
2018-05-31T10:20:09.345Z,4.03
2018-05-31T10:22:39.501Z,5.13
2018-05-31T10:25:07.592Z,7.30
2018-05-31T10:27:35.706Z,4.97
2018-05-31T10:30:04.888Z,4.93
2018-05-31T10:32:32.990Z,5.33
2018-05-31T10:35:01.189Z,5.93
2018-05-31T10:37:29.633Z,4.77
2018-05-31T10:39:58.279Z,4.20
2018-05-31T10:42:26.401Z,4.17
2018-05-31T10:44:54.587Z,6.33
2018-05-31T10:47:22.706Z,6.23
2018-05-31T10:49:51.440Z,3.77
2018-05-31T10:52:19.608Z,5.00
2018-05-31T10:54:47.736Z,5.93
2018-05-31T10:57:17.386Z,11.03
2018-05-31T10:59:45.599Z,6.67
2018-05-31T11:02:13.918Z,3.70
2018-05-31T11:04:42.112Z,4.43
2018-05-31T11:07:10.267Z,5.27
2018-05-31T11:09:39.182Z,7.60
2018-05-31T11:12:07.319Z,4.47
2018-05-31T11:14:35.427Z,4.77
2018-05-31T11:17:03.556Z,5.27
2018-05-31T11:19:31.671Z,4.43
2018-05-31T11:21:59.776Z,5.73
2018-05-31T11:24:27.923Z,4.97
2018-05-31T11:26:56.047Z,5.10
2018-05-31T11:29:24.216Z,4.30
2018-05-31T11:31:52.333Z,4.37
2018-05-31T11:34:20.458Z,4.07
2018-05-31T11:36:48.590Z,4.28
2018-05-31T11:39:16.715Z,5.47
2018-05-31T11:41:44.909Z,5.53
2018-05-31T11:44:13.778Z,5.93
2018-05-31T11:46:41.953Z,4.75
2018-05-31T11:49:10.066Z,4.37
2018-05-31T11:51:39.339Z,4.10
2018-05-31T11:54:08.329Z,5.57
2018-05-31T11:56:36.451Z,3.40
2018-05-31T11:59:04.567Z,6.03
2018-05-31T12:01:32.724Z,8.30
2018-05-31T12:04:00.944Z,5.57
2018-05-31T12:06:29.943Z,5.82
2018-05-31T12:09:00.490Z,5.05
2018-05-31T12:11:28.616Z,4.17
2018-05-31T12:13:56.772Z,5.00
2018-05-31T12:16:24.883Z,6.90
2018-05-31T12:18:53.775Z,4.07
2018-05-31T12:21:22.772Z,5.73
2018-05-31T12:23:52.193Z,3.40
2018-05-31T12:26:20.315Z,3.77
2018-05-31T12:28:48.435Z,5.27
2018-05-31T12:31:16.644Z,6.17
2018-05-31T12:33:44.785Z,4.77
2018-05-31T12:36:12.888Z,6.65
2018-05-31T12:38:41.114Z,6.33
2018-05-31T12:41:09.979Z,6.12
2018-05-31T12:43:38.103Z,6.70
2018-05-31T12:46:06.215Z,6.53
2018-05-31T12:48:34.480Z,4.13
2018-05-31T12:51:03.038Z,4.90
2018-05-31T12:53:31.806Z,5.00
2018-05-31T12:56:00.848Z,6.90
2018-05-31T12:58:30.613Z,6.80
2018-05-31T13:00:58.797Z,3.83
2018-05-31T13:03:26.920Z,5.00
2018-05-31T13:05:56.617Z,5.20
2018-05-31T13:08:25.490Z,6.53
2018-05-31T13:10:54.554Z,4.00
2018-05-31T13:13:23.853Z,4.57
2018-05-31T13:15:51.998Z,4.80
2018-05-31T13:18:20.204Z,5.30
2018-05-31T13:20:48.332Z,3.78
2018-05-31T13:23:17.842Z,6.15
2018-05-31T13:25:46.469Z,5.27
2018-05-31T13:28:14.714Z,4.80
2018-05-31T13:30:42.821Z,5.77
2018-05-31T13:33:11.911Z,4.43
2018-05-31T13:35:40.028Z,6.43
2018-05-31T13:38:08.169Z,5.18
2018-05-31T13:40:36.341Z,6.70
2018-05-31T13:43:05.753Z,4.53
2018-05-31T13:45:33.983Z,3.90
2018-05-31T13:48:02.110Z,3.50
2018-05-31T13:50:30.432Z,6.07
2018-05-31T13:52:59.308Z,4.50
2018-05-31T13:55:27.434Z,4.45
2018-05-31T13:57:55.679Z,5.15
2018-05-31T14:00:24.572Z,4.70
2018-05-31T14:02:53.466Z,4.35
2018-05-31T14:05:23.035Z,3.87
2018-05-31T14:07:51.200Z,3.15
2018-05-31T14:10:19.725Z,4.72
2018-05-31T14:12:48.637Z,5.10
2018-05-31T14:15:16.762Z,4.05
2018-05-31T14:17:44.901Z,2.97
2018-05-31T14:20:14.407Z,4.72
2018-05-31T14:22:42.520Z,3.12
2018-05-31T14:25:11.657Z,2.80
2018-05-31T14:27:39.928Z,4.05
2018-05-31T14:30:08.167Z,3.00
2018-05-31T14:32:36.376Z,4.60
2018-05-31T14:35:04.782Z,4.17
2018-05-31T14:37:32.906Z,4.20
2018-05-31T14:40:01.772Z,5.53
2018-05-31T14:42:30.066Z,5.35
2018-05-31T14:44:58.215Z,4.87
2018-05-31T14:47:28.593Z,4.60
2018-05-31T14:49:56.710Z,5.47
2018-05-31T14:52:24.900Z,9.50
2018-05-31T14:54:53.812Z,8.23
2018-05-31T14:57:22.121Z,12.13
2018-05-31T14:59:50.241Z,9.03
2018-05-31T15:02:18.357Z,9.37
2018-05-31T15:04:47.268Z,6.90
2018-05-31T15:07:15.941Z,6.60
2018-05-31T15:09:44.167Z,6.67
2018-05-31T15:12:12.338Z,7.63
2018-05-31T15:14:40.486Z,5.03
2018-05-31T15:17:08.783Z,4.47
2018-05-31T15:19:36.972Z,3.80
2018-05-31T15:22:05.093Z,3.53
2018-05-31T15:24:33.316Z,3.17
2018-05-31T15:27:01.486Z,4.70
2018-05-31T15:29:31.104Z,5.07
2018-05-31T15:31:59.208Z,4.00
2018-05-31T15:34:27.663Z,4.27
2018-05-31T15:36:55.772Z,3.87
2018-05-31T15:39:23.969Z,3.67
2018-05-31T15:41:53.515Z,2.42
2018-05-31T15:44:21.636Z,2.20
2018-05-31T15:46:50.061Z,3.33
2018-05-31T15:49:18.175Z,2.30
2018-05-31T15:51:46.287Z,2.22
2018-05-31T15:54:15.079Z,4.30
2018-05-31T15:56:43.834Z,4.62
2018-05-31T15:59:11.936Z,4.53
2018-05-31T16:01:40.068Z,5.00
2018-05-31T16:04:08.184Z,4.03
2018-05-31T16:06:36.775Z,3.53
2018-05-31T16:09:06.264Z,3.85
2018-05-31T16:11:34.366Z,3.28
2018-05-31T16:14:03.438Z,2.30
2018-05-31T16:16:31.543Z,2.67
2018-05-31T16:19:00.437Z,2.42
2018-05-31T16:21:29.317Z,4.65
2018-05-31T16:23:58.486Z,3.30
2018-05-31T16:26:26.599Z,2.30
2018-05-31T16:28:57.145Z,2.60
2018-05-31T16:31:25.287Z,2.80
2018-05-31T16:33:54.355Z,2.17
2018-05-31T16:36:22.485Z,3.12
2018-05-31T16:38:50.648Z,4.45
2018-05-31T16:41:19.529Z,3.53
2018-05-31T16:43:50.057Z,3.42
2018-05-31T16:46:19.059Z,3.53
2018-05-31T16:48:47.935Z,4.30
2018-05-31T16:51:16.827Z,3.75
2018-05-31T16:53:45.105Z,2.25
2018-05-31T16:56:13.236Z,2.37
2018-05-31T16:58:41.340Z,2.42
2018-05-31T17:01:09.467Z,2.20
2018-05-31T17:03:37.704Z,1.90
2018-05-31T17:06:06.594Z,3.37
2018-05-31T17:08:35.850Z,3.35
2018-05-31T17:11:03.974Z,2.45
2018-05-31T17:13:33.019Z,2.95
2018-05-31T17:16:01.958Z,4.43
2018-05-31T17:18:30.928Z,3.10
2018-05-31T17:21:00.447Z,2.58
2018-05-31T17:23:29.328Z,2.83
2018-05-31T17:25:58.211Z,3.08
2018-05-31T17:28:27.629Z,2.65
2018-05-31T17:30:55.737Z,2.58
2018-05-31T17:33:26.151Z,2.87
2018-05-31T17:35:54.816Z,3.87
2018-05-31T17:38:23.704Z,2.80
2018-05-31T17:40:54.058Z,3.70
2018-05-31T17:43:24.731Z,3.22
2018-05-31T17:45:52.955Z,3.28
2018-05-31T17:48:21.120Z,2.83
2018-05-31T17:50:51.055Z,2.90
2018-05-31T17:53:19.809Z,3.53
2018-05-31T17:55:48.775Z,3.67
2018-05-31T17:58:17.707Z,3.37
2018-05-31T18:00:46.771Z,4.15
2018-05-31T18:03:15.577Z,3.45
2018-05-31T18:05:43.753Z,3.75
2018-05-31T18:08:12.339Z,2.95
2018-05-31T18:10:40.541Z,4.37
2018-05-31T18:13:09.609Z,2.95
2018-05-31T18:15:37.803Z,4.32
2018-05-31T18:18:05.977Z,3.00
2018-05-31T18:20:34.260Z,3.70
2018-05-31T18:23:02.392Z,3.70
2018-05-31T18:25:32.440Z,4.55
2018-05-31T18:28:00.619Z,4.50
2018-05-31T18:30:30.762Z,2.57
2018-05-31T18:32:59.576Z,3.30
2018-05-31T18:35:27.939Z,2.50
2018-05-31T18:37:57.065Z,3.73
2018-05-31T18:40:25.181Z,2.80
2018-05-31T18:42:53.542Z,4.47
2018-05-31T18:45:21.699Z,4.07
2018-05-31T18:47:50.666Z,3.80
2018-05-31T18:50:18.796Z,3.90
2018-05-31T18:52:47.687Z,4.40
2018-05-31T18:55:16.575Z,3.00
2018-05-31T18:57:48.019Z,3.80
2018-05-31T19:00:18.031Z,4.57
2018-05-31T19:02:47.002Z,5.00
2018-05-31T19:05:15.141Z,4.07
2018-05-31T19:07:43.432Z,2.77
2018-05-31T19:10:11.566Z,2.87
2018-05-31T19:12:45.370Z,4.80
2018-05-31T19:15:21.632Z,5.43
2018-05-31T19:17:42.476Z,4.40
2018-05-31T19:20:11.181Z,3.00
2018-05-31T19:22:39.317Z,5.10
2018-05-31T19:25:13.448Z,2.83
2018-05-31T19:27:41.587Z,4.03
2018-05-31T19:30:16.383Z,4.43
2018-05-31T19:32:44.593Z,4.83
2018-05-31T19:35:20.046Z,6.57
2018-05-31T19:37:48.156Z,4.20
2018-05-31T19:40:16.310Z,5.20
2018-05-31T19:42:50.287Z,4.40
2018-05-31T19:45:18.611Z,3.30
2018-05-31T19:47:47.528Z,4.53
2018-05-31T19:50:16.441Z,4.37
2018-05-31T19:52:51.019Z,5.40
2018-05-31T19:55:20.626Z,4.47
2018-05-31T19:57:54.444Z,5.03
2018-05-31T20:00:28.163Z,5.33
2018-05-31T20:03:02.720Z,4.07
2018-05-31T20:05:30.975Z,5.33
2018-05-31T20:07:59.866Z,4.33
2018-05-31T20:10:29.093Z,5.57
2018-05-31T20:12:57.301Z,3.67
2018-05-31T20:15:25.457Z,4.43
2018-05-31T20:17:53.596Z,4.53
2018-05-31T20:20:22.581Z,3.80
2018-05-31T20:22:51.558Z,4.83
2018-05-31T20:25:19.797Z,6.70
2018-05-31T20:27:47.989Z,4.77
2018-05-31T20:30:16.257Z,4.83
2018-05-31T20:32:44.568Z,4.90
2018-05-31T20:35:13.863Z,5.27
2018-05-31T20:37:42.004Z,4.63
2018-05-31T20:40:12.796Z,6.37
2018-05-31T20:42:40.926Z,4.73
2018-05-31T20:45:09.064Z,5.87
2018-05-31T20:47:37.405Z,5.67
2018-05-31T20:50:06.305Z,5.70
2018-05-31T20:52:34.430Z,7.13
2018-05-31T20:55:03.030Z,5.40
2018-05-31T20:57:31.278Z,5.20
2018-05-31T20:59:59.470Z,7.33
2018-05-31T21:02:28.462Z,7.90
2018-05-31T21:04:56.580Z,5.03
2018-05-31T21:07:25.259Z,6.73
2018-05-31T21:09:54.150Z,5.37
2018-05-31T21:12:22.477Z,5.63
2018-05-31T21:14:50.582Z,6.37
2018-05-31T21:17:19.556Z,6.10
2018-05-31T21:19:52.216Z,6.20
2018-05-31T21:22:21.216Z,6.73
2018-05-31T21:24:49.446Z,8.03
2018-05-31T21:27:17.578Z,6.70
2018-05-31T21:29:45.695Z,8.83
2018-05-31T21:32:13.807Z,8.80
2018-05-31T21:34:43.403Z,6.00
2018-05-31T21:37:12.044Z,5.87
2018-05-31T21:39:41.413Z,7.87
2018-05-31T21:42:10.296Z,8.63
2018-05-31T21:44:38.382Z,6.00
2018-05-31T21:47:07.289Z,6.70
2018-05-31T21:49:36.188Z,6.60
2018-05-31T21:52:06.734Z,8.67
2018-05-31T21:54:34.857Z,7.57
2018-05-31T21:57:04.349Z,9.50
2018-05-31T21:59:32.484Z,6.90
2018-05-31T22:02:01.384Z,8.30
2018-05-31T22:04:29.496Z,9.07
2018-05-31T22:06:57.768Z,9.77
2018-05-31T22:09:25.891Z,7.43
2018-05-31T22:11:56.062Z,9.03
2018-05-31T22:14:24.289Z,6.40
2018-05-31T22:16:52.412Z,9.83
2018-05-31T22:19:21.048Z,11.43
2018-05-31T22:21:49.172Z,7.53
2018-05-31T22:24:17.328Z,6.63
2018-05-31T22:26:45.443Z,8.73
2018-05-31T22:29:14.346Z,6.60
2018-05-31T22:31:42.465Z,7.90
2018-05-31T22:34:10.685Z,8.00
2018-05-31T22:36:38.800Z,7.83
2018-05-31T22:39:06.918Z,8.80
2018-05-31T22:41:35.038Z,7.80
2018-05-31T22:44:03.168Z,7.57
2018-05-31T22:46:31.311Z,8.40
2018-05-31T22:48:59.718Z,8.53
2018-05-31T22:51:27.871Z,8.53
2018-05-31T22:53:56.183Z,10.40
2018-05-31T22:56:24.323Z,9.03
2018-05-31T22:58:52.696Z,10.40
2018-05-31T23:01:21.253Z,8.60
2018-05-31T23:03:49.373Z,10.33
2018-05-31T23:06:17.502Z,11.77
2018-05-31T23:08:45.637Z,9.87
2018-05-31T23:11:14.533Z,10.73
2018-05-31T23:13:43.431Z,10.63
2018-05-31T23:16:12.392Z,8.73
2018-05-31T23:18:40.819Z,8.97
2018-05-31T23:21:09.152Z,9.77
2018-05-31T23:23:37.318Z,11.10
2018-05-31T23:26:05.829Z,9.87
2018-05-31T23:28:33.942Z,8.53
2018-05-31T23:31:02.075Z,10.37
2018-05-31T23:33:31.056Z,8.97
2018-05-31T23:35:59.168Z,9.60
2018-05-31T23:38:27.298Z,9.03
2018-05-31T23:40:55.405Z,11.57
2018-05-31T23:43:23.536Z,9.90
2018-05-31T23:45:51.658Z,8.03
2018-05-31T23:48:19.806Z,7.90
2018-05-31T23:50:48.575Z,7.50
2018-05-31T23:53:17.558Z,8.77
2018-05-31T23:55:46.944Z,9.23
2018-05-31T23:58:15.242Z,9.13
